Time;durP1;ratioP1;P1;durP2;ratioP2;P2;SDS_P1;SDS_P2;PMS_P1;PMS_P2;Temp;Humidity;BMP_temperature;BMP_pressure;BME280_temperature;BME280_humidity;BME280_pressure;Samples;Min_cycle;Max_cycle;Signal;HPM_P1;HPM_P2
2023/11/03 00:00:29;;;;;;;6.30;0.55;;;;;;;-146.25;72.97;52489.84;2080576;28;34045;-78
2023/11/03 00:01:31;;;;;;;3.00;0.40;;;;;;;-146.25;71.44;52443.22;2089411;28;33261;-78
2023/11/03 00:02:35;;;;;;;6.03;0.50;;;;;;;-146.25;71.94;52453.34;2095829;28;37801;-78
2023/11/03 00:03:37;;;;;;;4.60;0.40;;;;;;;-146.25;72.35;52455.38;2080663;28;32115;-77
2023/11/03 00:04:39;;;;;;;2.75;0.60;;;;;;;-146.25;72.81;52457.41;2080023;28;38999;-78
2023/11/03 00:05:41;;;;;;;4.60;0.40;;;;;;;-146.25;72.44;52467.56;2080345;28;38111;-78
2023/11/03 00:06:43;;;;;;;5.85;0.35;;;;;;;-146.25;72.38;52473.63;2080742;28;35425;-78
2023/11/03 00:07:48;;;;;;;4.20;0.45;;;;;;;-146.25;72.49;52471.59;2080496;28;20046;-78
2023/11/03 00:08:50;;;;;;;4.88;0.40;;;;;;;-146.25;72.36;52483.78;2079561;28;34887;-78
2023/11/03 00:09:52;;;;;;;3.70;0.40;;;;;;;-146.25;71.92;52473.63;2080606;28;33479;-78
2023/11/03 00:10:55;;;;;;;3.05;0.30;;;;;;;-146.25;72.09;52461.47;2079608;28;38198;-77
2023/11/03 00:11:56;;;;;;;3.30;0.20;;;;;;;-146.25;71.98;52467.56;2080762;28;20045;-78
2023/11/03 00:12:59;;;;;;;3.33;0.10;;;;;;;-146.25;72.89;52473.63;2080568;28;31241;-78
2023/11/03 00:14:04;;;;;;;4.20;0.13;;;;;;;-146.25;70.84;52491.88;2080807;28;32596;-79
2023/11/03 00:15:09;;;;;;;3.10;0.28;;;;;;;-146.25;71.68;52465.53;2080736;28;20848;-78
2023/11/03 00:16:11;;;;;;;2.55;0.20;;;;;;;-146.25;71.83;52455.38;2080865;28;34464;-78
2023/11/03 00:17:14;;;;;;;2.35;0.20;;;;;;;-146.25;72.00;52461.47;2080500;28;32702;-79
2023/11/03 00:18:15;;;;;;;1.73;0.20;;;;;;;-146.25;71.67;52483.78;2081399;28;20906;-77
2023/11/03 00:19:17;;;;;;;3.88;0.50;;;;;;;-146.25;72.50;52469.56;2080248;28;36932;-79
2023/11/03 00:20:19;;;;;;;3.35;0.20;;;;;;;-146.25;72.82;52473.63;2081102;28;20026;-78
2023/11/03 00:21:21;;;;;;;3.00;0.30;;;;;;;-146.25;72.77;52451.31;2080268;28;37366;-78
2023/11/03 00:22:26;;;;;;;1.75;0.10;;;;;;;-146.25;73.64;52497.97;2080424;28;32965;-79
2023/11/03 00:23:27;;;;;;;4.35;0.30;;;;;;;-146.25;74.23;52459.44;2080819;28;20077;-78
2023/11/03 00:24:29;;;;;;;3.58;0.20;;;;;;;-146.25;73.71;52469.56;2079546;28;37555;-79
2023/11/03 00:25:34;;;;;;;3.45;0.60;;;;;;;-146.25;73.46;52485.81;2079912;28;32895;-78
2023/11/03 00:26:36;;;;;;;4.45;0.20;;;;;;;-146.25;73.20;52489.84;2087949;28;20037;-78
2023/11/03 00:27:37;;;;;;;4.30;0.20;;;;;;;-146.25;73.41;52465.53;2079604;28;34679;-79
2023/11/03 00:28:40;;;;;;;2.63;0.10;;;;;;;-146.25;73.86;52439.16;2080676;28;25832;-78
2023/11/03 00:29:42;;;;;;;1.98;0.20;;;;;;;-146.25;73.72;52475.66;2079749;28;31303;-78
2023/11/03 00:30:44;;;;;;;5.78;0.20;;;;;;;-146.25;75.01;52449.31;2080577;28;20244;-78
2023/11/03 00:31:46;;;;;;;1.23;0.20;;;;;;;-146.25;75.13;52461.47;2080747;28;26296;-78
2023/11/03 00:32:48;;;;;;;2.42;0.10;;;;;;;-146.25;75.15;52473.63;2080026;28;30340;-79
2023/11/03 00:33:52;;;;;;;3.22;0.20;;;;;;;-146.25;75.56;52508.09;2079311;28;29633;-77
2023/11/03 00:34:54;;;;;;;1.40;0.10;;;;;;;-146.25;76.09;52467.56;2072005;28;20788;-78
2023/11/03 00:35:56;;;;;;;4.45;0.20;;;;;;;-146.25;76.18;52424.97;2063638;28;32612;-78
2023/11/03 00:36:59;;;;;;;1.70;0.20;;;;;;;-146.25;76.97;52481.75;2080597;28;20160;-78
2023/11/03 00:38:04;;;;;;;2.05;0.20;;;;;;;-146.25;76.78;52461.47;2087917;28;27819;-79
2023/11/03 00:39:12;;;;;;;3.50;0.28;;;;;;;-146.25;75.77;52445.25;2080683;28;29422;-79
2023/11/03 00:40:16;;;;;;;2.10;0.20;;;;;;;-146.25;76.55;52481.75;2080317;28;20605;-78
2023/11/03 00:41:20;;;;;;;2.45;0.20;;;;;;;-146.25;77.24;52443.22;2072377;28;27400;-78
2023/11/03 00:42:22;;;;;;;3.88;0.20;;;;;;;-146.25;77.64;52483.78;2079784;28;28454;-78
2023/11/03 00:43:24;;;;;;;3.35;0.20;;;;;;;-146.25;78.06;52493.91;2081011;28;20085;-78
2023/11/03 00:44:26;;;;;;;6.85;0.38;;;;;;;-146.25;78.42;52514.19;2079564;28;30830;-79
2023/11/03 00:45:29;;;;;;;1.35;0.10;;;;;;;-146.25;79.58;52473.63;2080539;28;20139;-78
2023/11/03 00:46:31;;;;;;;1.92;0.20;;;;;;;-146.25;78.56;52489.84;2080775;28;20049;-79
2023/11/03 00:47:33;;;;;;;3.35;0.30;;;;;;;-146.25;79.43;52457.41;2079960;28;28593;-78
2023/11/03 00:48:36;;;;;;;2.83;0.20;;;;;;;-146.25;80.30;52497.97;2080149;28;20120;-76
2023/11/03 00:49:38;;;;;;;2.65;0.13;;;;;;;-146.25;79.94;52489.84;2080015;28;24550;-78
2023/11/03 00:50:43;;;;;;;2.85;0.20;;;;;;;-146.25;80.95;52491.88;2079787;28;20053;-78
2023/11/03 00:51:45;;;;;;;1.90;0.17;;;;;;;-146.25;80.78;52459.44;2081139;28;24354;-78
2023/11/03 00:52:48;;;;;;;2.63;0.30;;;;;;;-146.25;81.29;52481.75;2080671;28;23350;-78
2023/11/03 00:53:52;;;;;;;2.83;0.30;;;;;;;-146.25;83.33;52467.56;2080271;28;32605;-78
2023/11/03 00:54:54;;;;;;;1.80;0.13;;;;;;;-146.25;84.87;52506.06;2080622;28;20113;-78
2023/11/03 00:55:59;;;;;;;2.55;0.20;;;;;;;-146.25;86.06;52510.13;2079973;28;35442;-78
2023/11/03 00:57:01;;;;;;;2.55;0.25;;;;;;;-146.25;89.54;52502.03;2080193;28;30213;-77
2023/11/03 00:58:05;;;;;;;3.05;0.30;;;;;;;-146.25;92.11;52453.34;2080192;28;24132;-77
2023/11/03 00:59:07;;;;;;;2.33;0.25;;;;;;;-146.25;93.85;52475.66;2079594;28;32150;-77
2023/11/03 01:00:13;;;;;;;3.17;0.20;;;;;;;-146.25;94.25;52485.81;2079369;28;24205;-78
2023/11/03 01:01:15;;;;;;;3.72;0.25;;;;;;;-146.25;96.03;52483.78;2071845;28;33635;-78
2023/11/03 01:02:17;;;;;;;4.13;0.30;;;;;;;-146.25;98.01;52489.84;2080239;28;20038;-77
2023/11/03 01:03:20;;;;;;;4.43;0.30;;;;;;;-146.25;97.54;52500.00;2080623;28;20893;-78
2023/11/03 01:04:22;;;;;;;3.40;0.60;;;;;;;-146.25;98.63;52473.63;2079878;28;30312;-78
2023/11/03 01:05:24;;;;;;;3.00;0.30;;;;;;;-146.25;100.00;52485.81;2079206;28;28401;-78
2023/11/03 01:06:29;;;;;;;2.30;0.20;;;;;;;-146.25;99.46;52429.03;2080400;28;20042;-78
2023/11/03 01:07:31;;;;;;;3.33;0.25;;;;;;;-146.25;100.00;52502.03;2079627;28;32075;-77
2023/11/03 01:08:34;;;;;;;2.78;0.20;;;;;;;-146.25;100.00;52471.59;2080013;28;25405;-77
2023/11/03 01:09:36;;;;;;;3.08;0.60;;;;;;;-146.25;100.00;52506.06;2079618;28;20478;-77
2023/11/03 01:10:39;;;;;;;1.60;0.20;;;;;;;-146.25;100.00;52500.00;2080221;28;25178;-76
2023/11/03 01:11:41;;;;;;;4.57;0.20;;;;;;;-146.25;100.00;52489.84;2080324;28;29253;-77
2023/11/03 01:12:46;;;;;;;3.20;0.40;;;;;;;-146.25;100.00;52497.97;2080245;28;29734;-75
2023/11/03 01:13:47;;;;;;;2.00;0.20;;;;;;;-146.25;100.00;52461.47;2080551;28;32054;-76
2023/11/03 01:14:51;;;;;;;4.97;0.30;;;;;;;-146.25;100.00;52473.63;2080039;28;20088;-76
2023/11/03 01:15:53;;;;;;;3.42;0.22;;;;;;;-146.25;100.00;52483.78;2079285;28;30178;-76
2023/11/03 01:16:55;;;;;;;4.15;0.38;;;;;;;-146.25;100.00;52481.75;2079521;28;31567;-76
2023/11/03 01:17:57;;;;;;;2.40;0.25;;;;;;;-146.25;100.00;52475.66;2079552;28;31183;-76
2023/11/03 01:19:04;;;;;;;2.78;0.20;;;;;;;-146.25;100.00;52493.91;2079967;28;34293;-75
2023/11/03 01:20:12;;;;;;;3.70;0.40;;;;;;;-146.25;100.00;52469.56;2080569;28;20034;-76
2023/11/03 01:21:16;;;;;;;3.97;0.20;;;;;;;-146.25;100.00;52479.72;2079505;28;22835;-76
2023/11/03 01:22:20;;;;;;;5.03;0.40;;;;;;;-146.25;100.00;52459.44;2079764;28;25157;-76
2023/11/03 01:23:23;;;;;;;2.25;0.20;;;;;;;-146.25;100.00;52477.69;2080248;28;29168;-76
2023/11/03 01:24:27;;;;;;;1.58;0.20;;;;;;;-146.25;100.00;52461.47;2080714;28;20042;-77
2023/11/03 01:25:31;;;;;;;2.13;0.20;;;;;;;-146.25;100.00;52479.72;2079785;28;20776;-76
2023/11/03 01:26:33;;;;;;;3.28;0.20;;;;;;;-146.25;100.00;52479.72;2071742;28;25372;-77
2023/11/03 01:27:36;;;;;;;3.28;0.20;;;;;;;-146.25;100.00;52532.44;2080190;28;20033;-76
2023/11/03 01:28:38;;;;;;;4.35;0.30;;;;;;;-146.25;100.00;52471.59;2079326;28;32380;-76
2023/11/03 01:29:40;;;;;;;2.90;0.30;;;;;;;-146.25;100.00;52473.63;2079316;28;29697;-76
2023/11/03 01:30:43;;;;;;;3.92;0.20;;;;;;;-146.25;100.00;52473.63;2080852;28;20411;-76
2023/11/03 01:31:46;;;;;;;2.00;0.20;;;;;;;-146.25;100.00;52489.84;2080669;28;20883;-76
2023/11/03 01:32:55;;;;;;;1.88;0.13;;;;;;;-146.25;100.00;52518.25;2079797;28;20046;-76
2023/11/03 01:33:56;;;;;;;2.65;0.10;;;;;;;-146.25;100.00;52469.56;2079846;28;28380;-76
2023/11/03 01:34:58;;;;;;;2.95;0.17;;;;;;;-146.25;100.00;52485.81;2080028;28;29539;-76
2023/11/03 01:36:04;;;;;;;3.42;0.20;;;;;;;-146.25;100.00;52512.16;2079813;28;24775;-76
2023/11/03 01:37:06;;;;;;;2.63;0.20;;;;;;;-146.25;100.00;52504.03;2080053;28;22380;-77
2023/11/03 01:38:08;;;;;;;1.60;0.20;;;;;;;-146.25;100.00;52465.53;2080084;28;27818;-76
2023/11/03 01:39:12;;;;;;;1.25;0.10;;;;;;;-146.25;100.00;52510.13;2071747;28;20034;-77
2023/11/03 01:40:14;;;;;;;1.42;0.10;;;;;;;-146.25;100.00;52463.50;2071548;28;30598;-76
2023/11/03 01:41:17;;;;;;;2.35;0.20;;;;;;;-146.25;100.00;52493.91;2079923;28;20038;-76
2023/11/03 01:42:19;;;;;;;2.17;0.20;;;;;;;-146.25;100.00;52481.75;2071356;28;20935;-76
2023/11/03 01:43:22;;;;;;;3.17;0.30;;;;;;;-146.25;100.00;52455.38;2080195;28;20049;-76
2023/11/03 01:44:24;;;;;;;0.90;0.20;;;;;;;-146.25;100.00;52465.53;2079075;28;34076;-76
2023/11/03 01:45:26;;;;;;;1.33;0.20;;;;;;;-146.25;100.00;52463.50;2079434;28;25163;-76
2023/11/03 01:46:28;;;;;;;2.30;0.20;;;;;;;-146.25;100.00;52479.72;2080528;28;20045;-75
2023/11/03 01:47:33;;;;;;;2.25;0.20;;;;;;;-146.25;100.00;52493.91;2079988;28;28545;-76
2023/11/03 01:48:35;;;;;;;3.10;0.20;;;;;;;-146.25;100.00;52467.56;2079626;28;20049;-75
2023/11/03 01:49:39;;;;;;;1.85;0.20;;;;;;;-146.25;100.00;52508.09;2079928;28;30113;-74
2023/11/03 01:50:42;;;;;;;3.88;0.20;;;;;;;-146.25;100.00;52465.53;2087354;28;30106;-75
2023/11/03 01:51:46;;;;;;;2.00;0.20;;;;;;;-146.25;100.00;52512.16;2079742;28;20046;-76
2023/11/03 01:52:51;;;;;;;1.75;0.20;;;;;;;-146.25;100.00;52467.56;2079821;28;31125;-76
2023/11/03 01:53:55;;;;;;;2.33;0.20;;;;;;;-146.25;100.00;52506.06;2088066;28;20033;-75
2023/11/03 01:54:57;;;;;;;4.05;0.20;;;;;;;-146.25;100.00;52506.06;2079134;28;32863;-75
2023/11/03 01:56:02;;;;;;;2.55;0.13;;;;;;;-146.25;100.00;52485.81;2071184;28;23233;-75
2023/11/03 01:57:05;;;;;;;2.05;0.20;;;;;;;-146.25;100.00;52510.13;2071603;28;22251;-76
2023/11/03 01:58:07;;;;;;;4.78;0.20;;;;;;;-146.25;100.00;52506.06;2079663;28;20085;-76
2023/11/03 01:59:10;;;;;;;3.67;0.30;;;;;;;-146.25;100.00;52479.72;2064236;28;20118;-75
2023/11/03 02:00:16;;;;;;;2.53;0.20;;;;;;;-146.25;100.00;52467.56;2063705;28;20035;-76
2023/11/03 02:01:19;;;;;;;3.67;0.20;;;;;;;-146.25;100.00;52457.41;2071889;28;28089;-75
2023/11/03 02:02:26;;;;;;;4.72;0.30;;;;;;;-146.25;100.00;52512.16;2079755;28;20045;-75
2023/11/03 02:03:28;;;;;;;3.55;0.30;;;;;;;-146.25;100.00;52487.81;2071345;28;20934;-76
2023/11/03 02:04:30;;;;;;;3.38;0.30;;;;;;;-146.25;100.00;52461.47;2071650;28;30055;-76
2023/11/03 02:05:34;;;;;;;2.00;0.25;;;;;;;-146.25;100.00;52463.50;2079284;28;23999;-76
2023/11/03 02:06:36;;;;;;;4.47;0.50;;;;;;;-146.25;100.00;52485.81;2071517;28;28337;-75
2023/11/03 02:07:38;;;;;;;5.35;0.45;;;;;;;-146.25;100.00;52453.34;2078928;28;25466;-75
2023/11/03 02:08:40;;;;;;;2.63;0.30;;;;;;;-146.25;100.00;52485.81;2079017;28;20061;-76
2023/11/03 02:09:42;;;;;;;4.10;0.22;;;;;;;-146.25;100.00;52500.00;2063457;28;21675;-76
2023/11/03 02:10:44;;;;;;;4.90;0.30;;;;;;;-146.25;100.00;52457.41;2071239;28;23179;-76
2023/11/03 02:11:48;;;;;;;5.38;0.40;;;;;;;-146.25;100.00;52467.56;2071191;28;27707;-76
2023/11/03 02:12:50;;;;;;;4.85;0.50;;;;;;;-146.25;100.00;52516.22;2071569;28;21760;-76
2023/11/03 02:13:52;;;;;;;4.30;0.70;;;;;;;-146.25;100.00;52520.28;2071521;28;20181;-76
2023/11/03 02:14:54;;;;;;;1.80;0.40;;;;;;;-146.25;100.00;52495.94;2079053;28;24230;-76
2023/11/03 02:15:56;;;;;;;4.40;0.30;;;;;;;-146.25;100.00;52493.91;2079321;28;27587;-77
2023/11/03 02:17:02;;;;;;;3.47;0.30;;;;;;;-146.25;100.00;52473.63;2079178;28;25019;-76
2023/11/03 02:18:04;;;;;;;3.70;0.30;;;;;;;-146.25;100.00;52465.53;2087260;28;20034;-75
2023/11/03 02:19:10;;;;;;;3.63;0.28;;;;;;;-146.25;100.00;52497.97;2078715;28;33482;-76
2023/11/03 02:20:16;;;;;;;4.55;0.50;;;;;;;-146.25;100.00;52510.13;2080520;28;20049;-76
2023/11/03 02:21:18;;;;;;;3.53;0.40;;;;;;;-146.25;100.00;52493.91;2086032;28;33099;-76
2023/11/03 02:22:20;;;;;;;6.22;0.40;;;;;;;-146.25;100.00;52479.72;2079303;28;30313;-75
2023/11/03 02:23:22;;;;;;;3.90;0.40;;;;;;;-146.25;100.00;52469.56;2079437;28;29680;-75
2023/11/03 02:24:24;;;;;;;3.85;0.30;;;;;;;-146.25;100.00;52485.81;2079769;28;26900;-76
2023/11/03 02:25:26;;;;;;;4.05;0.40;;;;;;;-146.25;100.00;52469.56;2078804;28;31348;-76
2023/11/03 02:26:27;;;;;;;6.28;0.40;;;;;;;-146.25;100.00;52455.38;2079170;28;28769;-76
2023/11/03 02:27:30;;;;;;;2.33;0.20;;;;;;;-146.25;100.00;52453.34;2079687;28;28897;-76
2023/11/03 02:28:34;;;;;;;3.50;0.35;;;;;;;-146.25;100.00;52512.16;2079370;28;20046;-76
2023/11/03 02:29:36;;;;;;;2.03;0.30;;;;;;;-146.25;100.00;52502.03;2079266;28;31888;-76
2023/11/03 02:30:39;;;;;;;5.43;0.52;;;;;;;-146.25;100.00;52493.91;2079603;28;28569;-76
2023/11/03 02:31:41;;;;;;;3.15;0.30;;;;;;;-146.25;100.00;52469.56;2083116;28;20037;-75
2023/11/03 02:32:43;;;;;;;4.28;0.30;;;;;;;-146.25;100.00;52481.75;2088140;28;27065;-76
2023/11/03 02:33:48;;;;;;;3.25;0.30;;;;;;;-146.25;100.00;52489.84;2088117;28;31660;-75
2023/11/03 02:34:50;;;;;;;4.05;0.30;;;;;;;-146.25;100.00;52483.78;2088202;28;21912;-76
2023/11/03 02:35:51;;;;;;;3.58;0.30;;;;;;;-146.25;100.00;52522.28;2087983;28;28717;-76
2023/11/03 02:36:53;;;;;;;1.88;0.20;;;;;;;-146.25;100.00;52489.84;2087231;28;25058;-76
2023/11/03 02:37:55;;;;;;;2.45;0.32;;;;;;;-146.25;100.00;52453.34;2087388;28;25985;-76
2023/11/03 02:38:57;;;;;;;3.42;0.28;;;;;;;-146.25;100.00;52467.56;2087369;28;25223;-75
2023/11/03 02:40:01;;;;;;;2.20;0.20;;;;;;;-146.25;100.00;52481.75;2087599;28;25479;-75
2023/11/03 02:41:03;;;;;;;2.03;0.30;;;;;;;-146.25;100.00;52485.81;2087968;28;25390;-75
2023/11/03 02:42:08;;;;;;;3.22;0.28;;;;;;;-146.25;100.00;52489.84;2088771;28;20175;-76
2023/11/03 02:43:10;;;;;;;4.05;0.30;;;;;;;-146.25;100.00;52493.91;2088228;28;27340;-76
2023/11/03 02:44:12;;;;;;;2.35;0.20;;;;;;;-146.25;100.00;52453.34;2087870;28;37594;-76
2023/11/03 02:45:16;;;;;;;2.08;0.30;;;;;;;-146.25;100.00;52502.03;2087135;28;31429;-76
2023/11/03 02:46:23;;;;;;;2.00;0.30;;;;;;;-146.25;100.00;52485.81;2079873;28;20042;-75
2023/11/03 02:47:27;;;;;;;1.60;0.20;;;;;;;-146.25;100.00;52510.13;2079696;28;25486;-75
2023/11/03 02:48:29;;;;;;;2.20;0.20;;;;;;;-146.25;100.00;52485.81;2087086;28;30112;-76
2023/11/03 02:49:31;;;;;;;2.80;0.43;;;;;;;-146.25;100.00;52455.38;2078835;28;20922;-75
2023/11/03 02:50:33;;;;;;;3.15;0.30;;;;;;;-146.25;100.00;52526.34;2079373;28;27006;-74
2023/11/03 02:51:35;;;;;;;2.10;0.30;;;;;;;-146.25;100.00;52495.94;2079228;28;20917;-75
2023/11/03 02:52:36;;;;;;;5.20;0.40;;;;;;;-146.25;100.00;52504.03;2071212;28;31097;-75
2023/11/03 02:53:39;;;;;;;3.22;0.40;;;;;;;-146.25;100.00;52471.59;2087272;28;27280;-75
2023/11/03 02:54:41;;;;;;;2.85;0.40;;;;;;;-146.25;100.00;52479.72;2088123;28;25078;-76
2023/11/03 02:55:43;;;;;;;3.10;0.55;;;;;;;-146.25;100.00;52487.81;2087901;28;26636;-75
2023/11/03 02:56:44;;;;;;;3.72;0.20;;;;;;;-146.25;100.00;52508.09;2087908;28;25421;-76
2023/11/03 02:57:48;;;;;;;2.10;0.30;;;;;;;-146.25;100.00;52497.97;2088402;28;20053;-76
2023/11/03 02:58:54;;;;;;;4.78;0.38;;;;;;;-146.25;100.00;52479.72;2087901;28;20049;-76
2023/11/03 02:59:55;;;;;;;4.32;0.20;;;;;;;-146.25;100.00;52487.81;2087157;28;30982;-75
2023/11/03 03:00:58;;;;;;;3.92;0.30;;;;;;;-146.25;100.00;52540.53;2087391;28;28369;-75
2023/11/03 03:02:03;;;;;;;1.77;0.20;;;;;;;-146.25;100.00;52510.13;2087689;28;29360;-75
2023/11/03 03:03:05;;;;;;;3.28;0.30;;;;;;;-146.25;100.00;52508.09;2087280;28;31077;-76
2023/11/03 03:04:10;;;;;;;5.63;0.30;;;;;;;-146.25;100.00;52465.53;2087733;28;20034;-75
2023/11/03 03:05:12;;;;;;;4.30;0.20;;;;;;;-146.25;100.00;52487.81;2088379;28;20038;-76
2023/11/03 03:06:16;;;;;;;3.22;0.32;;;;;;;-146.25;100.00;52514.19;2078768;28;34331;-75
2023/11/03 03:07:17;;;;;;;4.20;0.55;;;;;;;-146.25;100.00;52473.63;2071701;28;29121;-75
2023/11/03 03:08:20;;;;;;;1.95;0.20;;;;;;;-146.25;100.00;52449.31;2087112;28;20597;-76
2023/11/03 03:09:25;;;;;;;3.40;0.30;;;;;;;-146.25;100.00;52471.59;2087096;28;27875;-75
2023/11/03 03:10:26;;;;;;;9.40;0.70;;;;;;;-146.25;100.00;52473.63;2086874;28;27215;-76
2023/11/03 03:11:29;;;;;;;2.05;0.40;;;;;;;-146.25;100.00;52500.00;2087194;28;28698;-76
2023/11/03 03:12:30;;;;;;;3.03;0.40;;;;;;;-146.25;100.00;52497.97;2087814;28;29633;-76
2023/11/03 03:13:32;;;;;;;3.40;0.40;;;;;;;-146.25;100.00;52508.09;2087667;28;20073;-75
2023/11/03 03:14:34;;;;;;;3.80;0.60;;;;;;;-146.25;100.00;52477.69;2078719;28;20168;-76
2023/11/03 03:15:36;;;;;;;3.45;0.40;;;;;;;-146.25;100.00;52508.09;2087126;28;24050;-76
2023/11/03 03:16:37;;;;;;;4.80;0.40;;;;;;;-146.25;100.00;52514.19;2087200;28;21870;-74
2023/11/03 03:17:39;;;;;;;5.35;0.50;;;;;;;-146.25;100.00;52497.97;2079345;28;22463;-76
2023/11/03 03:18:41;;;;;;;3.70;0.50;;;;;;;-146.25;100.00;52504.03;2070443;28;28200;-75
2023/11/03 03:19:45;;;;;;;3.55;0.55;;;;;;;-146.25;100.00;52485.81;2080413;28;25300;-76
2023/11/03 03:20:47;;;;;;;4.57;0.40;;;;;;;-146.25;100.00;52497.97;2088898;28;32702;-75
2023/11/03 03:21:49;;;;;;;3.65;0.45;;;;;;;-146.25;100.00;52534.47;2089849;28;20922;-75
2023/11/03 03:22:51;;;;;;;5.20;0.50;;;;;;;-146.25;100.00;52449.31;2089624;28;20863;-76
2023/11/03 03:23:53;;;;;;;3.97;0.50;;;;;;;-146.25;100.00;52465.53;2088497;28;26523;-76
2023/11/03 03:24:55;;;;;;;2.33;0.50;;;;;;;-146.25;100.00;52471.59;2088161;28;23840;-76
2023/11/03 03:25:57;;;;;;;3.42;0.45;;;;;;;-146.25;100.00;52487.81;2089127;28;29719;-76
2023/11/03 03:26:58;;;;;;;2.63;0.40;;;;;;;-146.25;100.00;52479.72;2088245;28;26521;-76
2023/11/03 03:28:00;;;;;;;3.22;0.47;;;;;;;-146.25;100.00;52489.84;2088888;28;23710;-76
2023/11/03 03:29:02;;;;;;;3.97;0.47;;;;;;;-146.25;100.00;52502.03;2089367;28;26263;-75
2023/11/03 03:30:05;;;;;;;4.70;0.50;;;;;;;-146.25;100.00;52479.72;2088805;28;24928;-76
2023/11/03 03:31:07;;;;;;;2.78;0.60;;;;;;;-146.25;100.00;52506.06;2088626;28;22282;-76
2023/11/03 03:32:08;;;;;;;2.40;0.50;;;;;;;-146.25;100.00;52443.22;2089471;28;20111;-75
2023/11/03 03:33:10;;;;;;;2.10;0.60;;;;;;;-146.25;100.00;52514.19;2088965;28;22466;-76
2023/11/03 03:34:12;;;;;;;2.92;0.43;;;;;;;-146.25;100.00;52497.97;2089230;28;20046;-76
2023/11/03 03:35:14;;;;;;;3.33;0.50;;;;;;;-146.25;100.00;52473.63;2080094;28;29439;-76
2023/11/03 03:36:16;;;;;;;4.22;0.77;;;;;;;-146.25;100.00;52504.03;2088718;28;20998;-76
2023/11/03 03:37:18;;;;;;;3.92;0.60;;;;;;;-146.25;100.00;52502.03;2089027;28;27825;-76
2023/11/03 03:38:20;;;;;;;3.78;0.60;;;;;;;-146.25;100.00;52502.03;2089498;28;27498;-75
2023/11/03 03:39:22;;;;;;;2.70;0.60;;;;;;;-146.25;100.00;52504.03;2089281;28;24554;-75
2023/11/03 03:40:23;;;;;;;1.70;0.65;;;;;;;-146.25;100.00;52475.66;2089294;28;30859;-76
2023/11/03 03:41:25;;;;;;;6.45;0.70;;;;;;;-146.25;100.00;52510.13;2088893;28;32373;-76
2023/11/03 03:42:27;;;;;;;4.90;0.70;;;;;;;-146.25;100.00;52504.03;2080005;28;31496;-76
2023/11/03 03:43:29;;;;;;;3.05;0.65;;;;;;;-146.25;100.00;52520.28;2080449;28;30891;-76
2023/11/03 03:44:33;;;;;;;3.40;0.63;;;;;;;-146.25;100.00;52520.28;2089333;28;20887;-76
2023/11/03 03:45:35;;;;;;;3.13;0.68;;;;;;;-146.25;100.00;52493.91;2089489;28;20088;-76
2023/11/03 03:46:37;;;;;;;3.70;0.60;;;;;;;-146.25;100.00;52487.81;2088219;28;29990;-76
2023/11/03 03:47:39;;;;;;;4.97;0.60;;;;;;;-146.25;100.00;52502.03;2088719;28;20113;-76
2023/11/03 03:48:41;;;;;;;3.63;0.70;;;;;;;-146.25;100.00;52463.50;2088057;28;27087;-75
2023/11/03 03:49:43;;;;;;;4.18;0.95;;;;;;;-146.25;100.00;52489.84;2089126;28;20143;-75
2023/11/03 03:50:45;;;;;;;2.38;0.55;;;;;;;-146.25;100.00;52491.88;2088606;28;27923;-75
2023/11/03 03:51:47;;;;;;;3.95;0.50;;;;;;;-146.25;100.00;52512.16;2088507;28;29164;-76
2023/11/03 03:52:49;;;;;;;3.60;0.70;;;;;;;-146.25;100.00;52526.34;2088709;28;20891;-76
2023/11/03 03:53:51;;;;;;;4.47;0.60;;;;;;;-146.25;100.00;52477.69;2088954;28;32784;-76
2023/11/03 03:54:53;;;;;;;2.85;0.60;;;;;;;-146.25;100.00;52504.03;2089176;28;26325;-76
2023/11/03 03:55:54;;;;;;;5.35;0.60;;;;;;;-146.25;100.00;52489.84;2089644;28;20942;-75
2023/11/03 03:56:56;;;;;;;2.03;0.52;;;;;;;-146.25;100.00;52524.31;2088222;28;24609;-76
2023/11/03 03:57:58;;;;;;;2.65;0.40;;;;;;;-146.25;100.00;52495.94;2079929;28;25425;-76
2023/11/03 03:59:00;;;;;;;2.13;0.40;;;;;;;-146.25;100.00;52471.59;2080309;28;20114;-76
2023/11/03 04:00:03;;;;;;;4.22;0.50;;;;;;;-146.25;100.00;52469.56;2072392;28;20035;-75
2023/11/03 04:01:06;;;;;;;3.35;0.40;;;;;;;-146.25;100.00;52493.91;2080689;28;20038;-76
2023/11/03 04:02:08;;;;;;;4.82;0.50;;;;;;;-146.25;100.00;52520.28;2088815;28;30327;-76
2023/11/03 04:03:10;;;;;;;2.08;0.60;;;;;;;-146.25;100.00;52495.94;2088669;28;34628;-76
2023/11/03 04:04:12;;;;;;;2.20;0.40;;;;;;;-146.25;100.00;52487.81;2089185;28;20160;-76
2023/11/03 04:05:14;;;;;;;3.83;0.50;;;;;;;-146.25;100.00;52495.94;2087851;28;37867;-76
2023/11/03 04:06:16;;;;;;;6.53;0.52;;;;;;;-146.25;100.00;52481.75;2087675;28;34578;-75
2023/11/03 04:07:18;;;;;;;3.60;0.50;;;;;;;-146.25;100.00;52477.69;2088266;28;31771;-75
2023/11/03 04:08:19;;;;;;;3.47;0.60;;;;;;;-146.25;100.00;52479.72;2087689;28;36381;-75
2023/11/03 04:09:24;;;;;;;4.93;0.57;;;;;;;-146.25;100.00;52504.03;2088185;28;36552;-76
2023/11/03 04:10:26;;;;;;;4.90;0.60;;;;;;;-146.25;100.00;52483.78;2080301;28;34699;-76
2023/11/03 04:11:28;;;;;;;4.43;0.55;;;;;;;-146.25;100.00;52495.94;2088103;28;36367;-76
2023/11/03 04:12:30;;;;;;;2.88;0.47;;;;;;;-146.25;100.00;52475.66;2088316;28;32869;-76
2023/11/03 04:13:33;;;;;;;1.65;0.38;;;;;;;-146.25;100.00;52473.63;2087972;28;28254;-76
2023/11/03 04:14:35;;;;;;;2.35;0.40;;;;;;;-146.25;100.00;52495.94;2088053;28;37186;-76
2023/11/03 04:15:37;;;;;;;3.63;0.40;;;;;;;-146.25;100.00;52491.88;2089046;28;30300;-76
2023/11/03 04:16:39;;;;;;;3.80;1.02;;;;;;;-146.25;100.00;52457.41;2088738;28;33203;-75
2023/11/03 04:17:40;;;;;;;4.45;0.50;;;;;;;-146.25;100.00;52502.03;2087473;28;39176;-76
2023/11/03 04:18:42;;;;;;;2.65;0.40;;;;;;;-146.25;100.00;52510.13;2088366;28;32182;-76
2023/11/03 04:19:46;;;;;;;3.88;0.40;;;;;;;-146.25;100.00;52522.28;2088265;28;20155;-76
2023/11/03 04:20:48;;;;;;;3.67;0.57;;;;;;;-146.25;100.00;52483.78;2088554;28;27152;-76
2023/11/03 04:21:53;;;;;;;3.03;0.55;;;;;;;-146.25;100.00;52489.84;2088554;28;20913;-70
2023/11/03 04:22:55;;;;;;;3.50;0.90;;;;;;;-146.25;100.00;52510.13;2088028;28;36310;-74
2023/11/03 04:23:57;;;;;;;3.70;0.45;;;;;;;-146.25;100.00;52493.91;2088587;28;32432;-72
2023/11/03 04:24:59;;;;;;;5.35;0.60;;;;;;;-146.25;100.00;52461.47;2088703;28;32648;-73
2023/11/03 04:26:01;;;;;;;4.22;0.50;;;;;;;-146.25;100.00;52512.16;2088419;28;34401;-74
2023/11/03 04:27:04;;;;;;;1.33;0.40;;;;;;;-146.25;100.00;52500.00;2088647;28;31329;-69
2023/11/03 04:28:06;;;;;;;2.78;0.45;;;;;;;-146.25;100.00;52493.91;2087860;28;32478;-75
2023/11/03 04:29:08;;;;;;;3.38;0.50;;;;;;;-146.25;100.00;52502.03;2080162;28;36422;-70
2023/11/03 04:30:11;;;;;;;3.63;0.50;;;;;;;-146.25;100.00;52479.72;2088461;28;20152;-70
2023/11/03 04:31:13;;;;;;;6.10;0.65;;;;;;;-146.25;100.00;52469.56;2079134;28;34070;-70
2023/11/03 04:32:14;;;;;;;2.83;0.47;;;;;;;-146.25;100.00;52493.91;2079999;28;31716;-68
2023/11/03 04:33:16;;;;;;;3.20;0.50;;;;;;;-146.25;100.00;52463.50;2089391;28;20041;-70
2023/11/03 04:34:18;;;;;;;2.90;0.60;;;;;;;-146.25;100.00;52485.81;2088391;28;35851;-72
2023/11/03 04:35:20;;;;;;;3.92;0.60;;;;;;;-146.25;100.00;52495.94;2087479;28;30871;-73
2023/11/03 04:36:22;;;;;;;4.07;0.57;;;;;;;-146.25;100.00;52477.69;2087733;28;33502;-72
2023/11/03 04:37:23;;;;;;;2.92;0.52;;;;;;;-146.25;100.00;52520.28;2079845;28;35625;-75
2023/11/03 04:38:25;;;;;;;4.88;0.40;;;;;;;-146.25;100.00;52518.25;2080268;28;20152;-70
2023/11/03 04:39:27;;;;;;;5.15;0.60;;;;;;;-146.25;100.00;52504.03;2088092;28;34332;-69
2023/11/03 04:40:29;;;;;;;3.63;0.75;;;;;;;-146.25;100.00;52508.09;2087475;28;35874;-70
2023/11/03 04:41:31;;;;;;;2.47;0.40;;;;;;;-146.25;100.00;52514.19;2088102;28;35425;-72
2023/11/03 04:42:32;;;;;;;2.13;0.50;;;;;;;-146.25;100.00;52483.78;2087885;28;35053;-70
2023/11/03 04:43:38;;;;;;;2.90;0.55;;;;;;;-146.25;100.00;52497.97;2087894;28;36467;-72
2023/11/03 04:44:40;;;;;;;3.20;0.47;;;;;;;-146.25;100.00;52483.78;2088429;28;20973;-75
2023/11/03 04:45:43;;;;;;;5.78;0.30;;;;;;;-146.25;100.00;52506.06;2087963;28;36529;-74